createdAt,value
2023-01-26T00:03:27.357Z,28.20
2023-01-26T00:08:29.232Z,31.25
2023-01-26T00:13:34.727Z,27.58
2023-01-26T00:18:38.533Z,29.10
2023-01-26T00:23:40.267Z,28.67
2023-01-26T00:28:42.126Z,28.92
2023-01-26T00:33:43.985Z,30.65
2023-01-26T00:38:46.589Z,30.13
2023-01-26T00:43:50.455Z,29.92
2023-01-26T00:48:52.275Z,31.98
2023-01-26T00:53:54.094Z,36.10
2023-01-26T00:58:57.199Z,31.20
2023-01-26T01:04:00.443Z,33.65
2023-01-26T01:09:02.335Z,35.80
2023-01-26T01:14:04.064Z,33.70
2023-01-26T01:19:05.827Z,33.47
2023-01-26T01:24:08.049Z,31.35
2023-01-26T01:29:13.282Z,35.28
2023-01-26T01:34:15.073Z,29.40
2023-01-26T01:39:19.648Z,34.08
2023-01-26T01:44:23.830Z,29.95
2023-01-26T01:49:42.785Z,37.72
2023-01-26T01:54:52.847Z,32.03
2023-01-26T02:00:16.549Z,34.42
2023-01-26T02:05:32.074Z,34.95
2023-01-26T02:10:36.077Z,34.05
2023-01-26T02:15:38.456Z,34.65
2023-01-26T02:20:46.761Z,39.72
2023-01-26T02:25:52.913Z,36.05
2023-01-26T02:30:56.065Z,38.13
2023-01-26T02:35:59.953Z,34.95
2023-01-26T02:41:38.713Z,34.08
2023-01-26T02:46:40.887Z,28.95
2023-01-26T02:51:48.334Z,30.90
2023-01-26T02:56:50.086Z,28.15
2023-01-26T03:01:54.542Z,24.70
2023-01-26T03:06:56.827Z,24.38
2023-01-26T03:11:58.622Z,20.13
2023-01-26T03:17:00.382Z,22.35
2023-01-26T03:22:20.888Z,17.98
2023-01-26T03:27:28.527Z,20.77
2023-01-26T03:32:30.304Z,18.33
2023-01-26T03:37:36.827Z,20.95
2023-01-26T03:42:57.212Z,19.95
2023-01-26T03:48:29.621Z,17.00
2023-01-26T03:53:49.771Z,17.42
2023-01-26T03:58:57.934Z,16.08
2023-01-26T04:04:18.117Z,16.38
2023-01-26T04:09:20.396Z,20.23
2023-01-26T04:14:50.517Z,21.40
2023-01-26T04:20:11.380Z,20.45
2023-01-26T04:25:18.161Z,20.75
2023-01-26T04:30:20.280Z,17.83
2023-01-26T04:35:23.284Z,20.90
2023-01-26T04:40:25.327Z,20.48
2023-01-26T04:45:27.050Z,21.73
2023-01-26T04:50:28.752Z,20.95
2023-01-26T04:55:30.717Z,24.33
2023-01-26T05:00:32.472Z,19.67
2023-01-26T05:05:38.340Z,18.85
2023-01-26T05:10:40.038Z,19.45
2023-01-26T05:15:43.161Z,19.25
2023-01-26T05:20:44.867Z,19.15
2023-01-26T05:25:46.951Z,22.02
2023-01-26T05:30:48.785Z,19.10
2023-01-26T05:35:51.744Z,19.38
2023-01-26T05:40:53.502Z,17.45
2023-01-26T05:45:55.270Z,18.73
2023-01-26T05:50:58.556Z,17.60
2023-01-26T05:56:00.337Z,20.83
2023-01-26T06:01:05.255Z,17.90
2023-01-26T06:06:07.146Z,22.38
2023-01-26T06:11:08.862Z,19.13
2023-01-26T06:16:10.576Z,19.42
2023-01-26T06:21:12.321Z,20.65
2023-01-26T06:26:15.254Z,16.60
2023-01-26T06:31:17.238Z,21.17
2023-01-26T06:36:19.062Z,23.02
2023-01-26T06:41:20.857Z,17.73
2023-01-26T06:46:22.668Z,18.38
2023-01-26T06:51:56.244Z,19.35
2023-01-26T06:56:58.247Z,17.88
2023-01-26T07:02:02.875Z,14.85
2023-01-26T07:07:04.584Z,18.55
2023-01-26T07:12:06.413Z,18.15
2023-01-26T07:17:08.152Z,19.83
2023-01-26T07:22:09.846Z,14.98
2023-01-26T07:27:11.600Z,16.20
2023-01-26T07:32:13.312Z,13.90
2023-01-26T07:37:15.391Z,14.20
2023-01-26T07:42:17.303Z,14.23
2023-01-26T07:47:20.012Z,13.63
2023-01-26T07:52:21.718Z,16.33
2023-01-26T07:57:24.623Z,16.70
2023-01-26T08:02:26.437Z,14.23
2023-01-26T08:07:28.144Z,16.27
2023-01-26T08:12:29.849Z,16.40
2023-01-26T08:17:33.892Z,13.93
2023-01-26T08:22:35.628Z,18.50
2023-01-26T08:27:37.438Z,14.95
2023-01-26T08:32:39.145Z,14.90
2023-01-26T08:37:40.945Z,14.27
2023-01-26T08:42:42.675Z,15.50
2023-01-26T08:47:45.419Z,17.85
2023-01-26T08:52:47.195Z,14.85
2023-01-26T08:57:52.507Z,17.55
2023-01-26T09:03:05.073Z,17.23
2023-01-26T09:08:08.619Z,16.77
2023-01-26T09:13:10.726Z,15.70
2023-01-26T09:18:12.527Z,17.35
2023-01-26T09:23:16.285Z,16.25
2023-01-26T09:28:18.010Z,14.35
2023-01-26T09:33:22.885Z,17.83
2023-01-26T09:38:24.686Z,17.52
2023-01-26T09:43:34.068Z,17.60
2023-01-26T09:48:50.346Z,12.77
2023-01-26T09:54:26.014Z,12.85
2023-01-26T09:59:40.377Z,14.32
2023-01-26T10:04:47.188Z,14.93
2023-01-26T10:09:51.169Z,15.52
2023-01-26T10:14:59.742Z,18.00
2023-01-26T10:20:07.376Z,13.15
2023-01-26T10:25:40.224Z,12.77
2023-01-26T10:30:44.087Z,15.10
2023-01-26T10:35:46.130Z,11.30
2023-01-26T10:40:47.961Z,9.43
2023-01-26T10:45:49.799Z,11.05
2023-01-26T10:50:51.630Z,11.60
2023-01-26T10:56:04.054Z,12.88
2023-01-26T11:01:12.427Z,14.90
2023-01-26T11:06:16.670Z,11.00
2023-01-26T11:11:26.326Z,11.77
2023-01-26T11:16:28.881Z,15.80
2023-01-26T11:21:40.430Z,15.82
2023-01-26T11:27:11.828Z,16.88
2023-01-26T11:32:23.715Z,14.48
2023-01-26T11:37:39.294Z,16.73
2023-01-26T11:43:08.822Z,21.63
2023-01-26T11:48:39.079Z,21.48
2023-01-26T11:53:49.856Z,23.38
2023-01-26T11:59:13.001Z,20.48
2023-01-26T12:04:20.308Z,22.85
2023-01-26T12:09:32.867Z,25.92
2023-01-26T12:14:50.742Z,25.58
2023-01-26T12:20:21.923Z,26.30
2023-01-26T12:25:38.359Z,27.17
2023-01-26T12:30:55.542Z,27.85
2023-01-26T12:36:03.827Z,27.63
2023-01-26T12:41:32.258Z,29.75
2023-01-26T12:46:40.068Z,33.85
2023-01-26T12:51:49.372Z,32.42
2023-01-26T12:56:57.633Z,31.65
2023-01-26T13:02:00.600Z,34.28
2023-01-26T13:07:04.472Z,31.90
2023-01-26T13:12:44.934Z,31.38
2023-01-26T13:17:50.194Z,34.63
2023-01-26T13:22:53.383Z,34.75
2023-01-26T13:27:57.813Z,34.00
2023-01-26T13:33:16.386Z,36.70
2023-01-26T13:38:34.118Z,38.75
2023-01-26T13:43:42.298Z,41.33
2023-01-26T13:48:47.113Z,35.97
2023-01-26T13:54:05.269Z,33.17
2023-01-26T13:59:16.361Z,34.65
2023-01-26T14:04:25.764Z,37.83
2023-01-26T14:09:30.129Z,37.90
2023-01-26T14:14:35.258Z,31.90
2023-01-26T14:19:41.728Z,33.67
2023-01-26T14:24:48.152Z,34.90
2023-01-26T14:29:50.169Z,30.20
2023-01-26T14:34:55.704Z,23.60
2023-01-26T14:40:20.437Z,27.40
2023-01-26T14:45:31.309Z,25.70
2023-01-26T14:50:35.984Z,29.08
2023-01-26T14:55:37.911Z,27.63
2023-01-26T15:00:39.883Z,24.33
2023-01-26T15:05:42.253Z,25.70
2023-01-26T15:10:55.892Z,25.80
2023-01-26T15:16:05.101Z,24.77
2023-01-26T15:21:19.305Z,25.08
2023-01-26T15:26:30.202Z,25.63
2023-01-26T15:31:35.887Z,21.05
2023-01-26T15:36:48.062Z,28.88
2023-01-26T15:42:14.635Z,25.73
2023-01-26T15:47:16.790Z,22.30
2023-01-26T15:52:20.289Z,25.98
2023-01-26T15:57:22.092Z,24.58
2023-01-26T16:02:23.861Z,20.95
2023-01-26T16:07:25.671Z,23.98
2023-01-26T16:12:31.520Z,23.17
2023-01-26T16:17:33.929Z,21.85
2023-01-26T16:22:35.970Z,21.23
2023-01-26T16:27:37.799Z,19.83
2023-01-26T16:32:39.658Z,25.27
2023-01-26T16:37:42.690Z,19.42
2023-01-26T16:42:50.726Z,29.67
2023-01-26T16:47:55.615Z,23.77
2023-01-26T16:52:57.440Z,20.83
2023-01-26T16:57:59.392Z,26.08
2023-01-26T17:03:04.533Z,23.10
2023-01-26T17:08:07.447Z,15.55
2023-01-26T17:13:13.730Z,31.52
2023-01-26T17:18:15.524Z,17.55
2023-01-26T17:23:17.236Z,22.30
2023-01-26T17:28:18.909Z,22.33
2023-01-26T17:33:20.783Z,28.08
2023-01-26T17:38:23.509Z,20.65
2023-01-26T17:43:25.632Z,25.98
2023-01-26T17:48:27.962Z,24.45
2023-01-26T17:53:29.894Z,23.45
2023-01-26T17:58:31.762Z,24.33
2023-01-26T18:03:34.290Z,26.52
2023-01-26T18:08:37.370Z,23.98
2023-01-26T18:13:46.583Z,31.05
2023-01-26T18:18:48.630Z,26.15
2023-01-26T18:23:52.102Z,29.00
2023-01-26T18:28:54.710Z,26.25
2023-01-26T18:33:58.603Z,27.15
2023-01-26T18:39:03.678Z,23.15
2023-01-26T18:44:05.597Z,23.45
2023-01-26T18:49:07.332Z,16.92
2023-01-26T18:54:09.873Z,19.38
2023-01-26T18:59:12.615Z,21.48
2023-01-26T19:04:16.549Z,18.33
2023-01-26T19:09:19.882Z,18.25
2023-01-26T19:14:21.615Z,16.50
2023-01-26T19:19:23.646Z,18.77
2023-01-26T19:24:25.431Z,18.05
2023-01-26T19:29:28.501Z,15.88
2023-01-26T19:34:32.114Z,17.35
2023-01-26T19:39:34.068Z,19.90
2023-01-26T19:44:35.875Z,18.88
2023-01-26T19:49:38.938Z,20.08
2023-01-26T19:54:42.869Z,20.95
2023-01-26T19:59:44.646Z,19.42
2023-01-26T20:04:46.504Z,23.15
2023-01-26T20:09:50.632Z,20.08
2023-01-26T20:14:53.570Z,21.40
2023-01-26T20:19:56.124Z,23.33
2023-01-26T20:24:58.008Z,22.42
2023-01-26T20:30:00.464Z,22.50
2023-01-26T20:35:02.759Z,25.08
2023-01-26T20:40:06.392Z,21.73
2023-01-26T20:45:09.084Z,21.15
2023-01-26T20:50:13.040Z,20.05
2023-01-26T20:55:15.249Z,19.00
2023-01-26T21:00:17.484Z,20.88
2023-01-26T21:05:20.201Z,23.48
2023-01-26T21:10:22.241Z,22.45
2023-01-26T21:15:24.141Z,20.20
2023-01-26T21:20:25.909Z,20.40
2023-01-26T21:25:27.838Z,19.88
2023-01-26T21:30:31.106Z,18.23
2023-01-26T21:35:36.450Z,21.95
2023-01-26T21:40:38.326Z,20.42
2023-01-26T21:45:55.969Z,22.00
2023-01-26T21:51:17.467Z,19.35
2023-01-26T21:56:19.413Z,20.00
2023-01-26T22:01:22.508Z,24.17
2023-01-26T22:06:25.411Z,19.52
2023-01-26T22:11:27.855Z,20.70
2023-01-26T22:16:29.863Z,23.73
2023-01-26T22:21:32.455Z,22.27
2023-01-26T22:26:34.392Z,22.63
2023-01-26T22:31:36.382Z,24.33
2023-01-26T22:36:38.321Z,23.85
2023-01-26T22:41:40.407Z,20.33
2023-01-26T22:46:42.647Z,26.17
2023-01-26T22:51:45.043Z,24.42
2023-01-26T22:56:46.852Z,23.85
2023-01-26T23:01:48.679Z,24.80
2023-01-26T23:06:50.386Z,25.52
2023-01-26T23:11:52.151Z,24.58
2023-01-26T23:16:55.888Z,20.90
2023-01-26T23:21:57.788Z,22.42
2023-01-26T23:27:01.033Z,21.35
2023-01-26T23:32:02.899Z,22.35
2023-01-26T23:37:04.704Z,25.02
2023-01-26T23:42:06.492Z,26.15
2023-01-26T23:47:08.332Z,22.58
2023-01-26T23:52:10.082Z,26.40
2023-01-26T23:57:14.666Z,22.00
